Kinetic One Castle Combe TT - Race 3
Skip Navigation Links
Results
DB Max TT Series
Smartphone Results
10 Jun 2015
HyperLink
Page 1 of 1 (44 items)
Pos
Bib No
Fav
Share
Name
Time
Category
Cat Pos
Gender
Gen Pos
Club
Pace
Wave
Split 1
G/Pos
Lap 1
G/Pos
Lap 2
G/Pos
Lap 3
G/Pos
Lap 4
G/Pos
Lap 5
G/Pos
118Peter KIBBLE00:22:11.26Jun1Male1Velocity Globalbike27.0 m/hrWave 1800:01:37.76100:05:41.01100:09:49.71200:13:57.61100:18:04.06100:22:11.261
249Jon PRIDHAM00:22:45.18Vet1Male2VECTIS ROADS CYCLING CLUB (VRCC) - ISLE OF WIGHT26.4 m/hrWave 4900:01:44.69600:05:57.32300:10:10.31300:14:19.85200:18:34.63200:22:45.182
352Nathan HUYNH00:23:18.43Jun2Male3COTSWOLD VELDRIJDEN25.7 m/hrWave 5200:01:43.78300:06:02.96500:10:23.57400:14:44.40400:19:04.86300:23:18.434
445Harry PALMER00:23:20.29Jun3Male4 25.7 m/hrWave 4500:01:44.87700:06:05.95600:10:28.84600:14:46.88300:19:07.90400:23:20.293
52Andy MORGAN00:23:45.72Vet2Male5KINETIC ONE25.3 m/hrWave 0200:01:46.871000:06:09.52800:10:33.07700:15:01.01800:19:25.98500:23:45.726
646Paul LAMBERT00:23:47.55Vet3Male6 25.2 m/hrWave 4600:01:50.241800:06:16.951100:10:39.70500:15:01.38500:19:31.36800:23:47.555
751Rob HALL00:23:56.69Vet4Male7SALTFORD AND KEYNSHAM CC25.1 m/hrWave 5100:01:47.371200:06:11.33900:10:38.21900:15:02.45600:19:31.46600:23:56.698
841Danny LAKE00:23:58.85Vet5Male8 25.0 m/hrWave 4300:01:46.11900:06:06.43700:10:33.29800:15:03.32900:19:32.58700:23:58.859
944Ros BURY00:24:11.04Vet6Male9 24.8 m/hrWave 4400:01:40.84200:06:02.02400:10:34.021000:15:11.181000:19:46.551000:24:11.047
1037Phil KRUSE00:24:19.52Vet7Male10 24.7 m/hrWave 3700:01:47.801300:06:15.801000:10:50.851100:15:18.75700:19:50.19900:24:19.5210
1127Anna SEYMOUR00:25:09.22Sen1Female1 23.9 m/hrWave 2700:01:47.36100:06:30.87200:11:13.19200:15:58.33100:20:36.24100:25:09.221
1238Marc JACKSON00:25:10.87Vet8Male11SALT&SHAM CC23.8 m/hrWave 3800:01:52.612100:06:30.021600:11:17.891700:15:59.191100:20:37.111100:25:10.8711
1334Sian CAHILL00:25:14.25Sen2Female2ZAPPI'S RACING TEAM23.8 m/hrWave 3400:01:54.54200:06:25.99100:11:04.72100:15:50.70200:20:33.40200:25:14.252
1424Gary ROETHENBAUGH00:25:20.23Vet9Male12SALT AND SHAM CYCLE CLUB23.7 m/hrWave 2400:01:48.421400:06:24.421200:11:09.431500:15:57.551700:20:43.941500:25:20.2312
1533Martin NEILL00:25:34.01Vet10Male13FLYING MONK TRIATHLON CLUB23.5 m/hrWave 4000:01:49.951600:06:25.431400:11:08.051300:15:54.051500:20:42.631600:25:34.0122
164Jonathan SINCLAIR00:25:36.36SupVet1Male14 23.4 m/hrWave 0400:01:54.492200:06:43.632100:11:21.791200:16:07.481400:20:52.801400:25:36.3614
1736Andrew PALMER00:25:39.13Sen1Male15 23.4 m/hrWave 3600:01:50.431900:06:30.081700:11:17.321600:15:58.751200:20:43.621300:25:39.1325
1815Charlie CHAPLIN00:25:40.15Vet11Male16 23.4 m/hrWave 1500:01:50.972000:06:29.271500:11:17.641800:16:02.111300:20:52.101700:25:40.1519
1942Ewen LEWIS00:25:48.62Sen2Male17SLINN ALLSTARS23.2 m/hrWave 4200:01:49.951700:06:25.021300:11:08.731400:16:04.172400:21:01.862300:25:48.6216
2035Tom WEEKS00:26:03.00Sen3Male18SWINDON TRIATHLON CLUB23.0 m/hrWave 3500:02:02.593300:06:52.042800:11:45.042000:16:32.591600:21:15.651200:26:03.0017
2131Ronnie MYERS00:26:09.14Sen4Male19 22.9 m/hrWave 3100:01:47.091100:06:37.191900:11:33.032600:16:23.091800:21:13.901900:26:09.1424
2225Pete WOOD00:26:11.72Sen5Male20 22.9 m/hrWave 2500:01:58.222800:06:44.002200:11:37.122100:16:29.332000:21:22.612000:26:11.7220
2328Clive SHIPWAY00:26:11.79Sen6Male21 22.9 m/hrWave 2800:01:44.52500:06:33.481800:11:26.702200:16:28.092900:21:24.062100:26:11.7918
2439Mike COX00:26:16.72SupVet2Male22CHIPPENHAM TRI22.8 m/hrWave 3900:01:57.352700:06:49.412300:11:42.722400:16:34.831900:21:25.571800:26:16.7221
2514Dave SMITH00:26:28.01SupVet3Male23 22.7 m/hrWave 1400:01:54.942300:06:41.072000:11:31.591900:16:24.162100:21:25.622700:26:28.0129
2626Graham JONES00:26:31.21SupVet4Male24BATH CC22.6 m/hrWave 2600:01:55.962500:06:49.692400:11:48.332800:16:48.982800:21:48.862600:26:31.2113
2722Ray PERKINS00:26:41.34SupVet5Male25PSYCLEWERX22.5 m/hrWave 2200:02:00.353100:06:51.252500:11:48.382700:16:42.822200:21:42.562500:26:41.3428
2813Stuart PATERSON00:26:41.71Sen7Male26 22.5 m/hrWave 1300:02:03.863500:06:51.842700:11:45.052300:16:40.132300:21:44.942800:26:41.7126
2920Neil COULING00:26:42.98Vet12Male27SWINDON TRI CLUB22.5 m/hrWave 2000:01:56.702600:06:58.903000:11:59.052900:16:58.562700:21:57.832400:26:42.9815
3019John BUSH00:26:45.42SupVet6Male28MAIDENHEAD & DISTRICT CYCLING CLUB22.4 m/hrWave 1900:01:59.723000:07:00.983100:11:56.102500:16:54.432500:21:50.842200:26:45.4223
3130John KINGWELL00:26:59.82Vet13Male29AVON VALLEY TRIATHLETES22.2 m/hrWave 3000:01:55.732400:06:57.732900:11:57.983000:16:56.832600:22:01.672900:26:59.8227
3217John GILCHRIST00:27:46.37Sen8Male30 21.6 m/hrWave 1700:01:49.471500:06:51.432600:11:59.733100:17:11.003000:22:36.673300:27:46.3731
3312Bethan RHODES00:28:11.90Sen3Female3 21.3 m/hrWave 1200:02:07.74600:07:23.92300:12:34.14300:17:45.79300:23:05.42300:28:11.903
3429Nigel EVANS00:28:22.21Vet14Male31AVON VALLEY TRIATHLETES21.1 m/hrWave 2900:02:02.413200:07:06.673200:12:20.723300:17:37.503200:22:57.813000:28:22.2133
3547Conan HOWSON00:28:35.46Sen9Male32 21.0 m/hrWave 4700:01:45.21800:07:15.303400:12:41.353500:18:02.473300:23:25.773100:28:35.4630
365Nigel SHIRES00:29:13.53SupVet7Male33 20.5 m/hrWave 0500:02:12.043600:07:40.103600:13:00.353400:18:24.903400:23:50.533200:29:13.5332
376Liz FOWLER00:30:03.52Sen4Female4NONE20.0 m/hrWave 0600:01:56.09300:07:34.89500:13:20.11600:18:58.05500:24:37.54400:30:03.524
383Malcolm SHIPWAY00:30:11.52SupVet601Male34 19.9 m/hrWave 0300:02:02.653400:07:32.803500:13:06.553600:18:46.503500:24:29.363400:30:11.5234
3916Jane HORLER00:30:16.07Vet1Female5 19.8 m/hrWave 1600:01:57.58400:07:33.18400:13:15.75500:18:59.26600:24:40.06500:30:16.076
4010Hannah MAYNARD00:30:39.47Jun1Female6Sas19.6 m/hrWave 1000:02:13.11700:07:53.24700:13:34.71400:19:12.29400:24:58.46600:30:39.477
419Lauren BOOTH00:31:06.61Jun2Female7Carnac Planet X19.3 m/hrWave 0900:02:01.53500:07:39.19600:13:44.69700:19:39.64700:25:31.26700:31:06.615
428Alison GOULSTONE00:35:07.91Vet2Female8SLINN ALLSTARS17.1 m/hrWave 0800:02:15.20800:08:28.95800:15:12.32800:21:55.70800:28:38.64800:35:07.918
48Terry DUDLEYStartedSupVetMale  m/hrWave 4800:01:58.252900:07:08.033300:12:18.583200:17:33.3831
53Niall TODDStartedSenMaleTAVISTOCK WHEELERS CC m/hrWave 5300:01:43.89400:05:45.45200:09:48.841
Page 1 of 1 (44 items)
fb

HyperLink Copyright (c) G Vincent, 2018